sensor_id;sensor_type;location;lat;lon;timestamp;pressure;altitude;pressure_sealevel;temperature;humidity
33404;BME280;19751;40.274;18.268;2023-05-01T00:02:08;100910.31;;;16.26;100.00
33404;BME280;19751;40.274;18.268;2023-05-01T00:04:33;100914.28;;;16.23;100.00
33404;BME280;19751;40.274;18.268;2023-05-01T00:06:59;100910.34;;;16.19;100.00
33404;BME280;19751;40.274;18.268;2023-05-01T00:09:26;100906.19;;;16.16;100.00
33404;BME280;19751;40.274;18.268;2023-05-01T00:11:52;100904.53;;;16.15;100.00
33404;BME280;19751;40.274;18.268;2023-05-01T00:14:17;100902.63;;;16.16;100.00
33404;BME280;19751;40.274;18.268;2023-05-01T00:16:43;100903.69;;;16.15;100.00
33404;BME280;19751;40.274;18.268;2023-05-01T00:19:11;100903.69;;;16.15;100.00
33404;BME280;19751;40.274;18.268;2023-05-01T00:21:36;100901.81;;;16.15;100.00
33404;BME280;19751;40.274;18.268;2023-05-01T00:24:02;100901.56;;;16.17;100.00
33404;BME280;19751;40.274;18.268;2023-05-01T00:26:28;100899.72;;;16.18;100.00
33404;BME280;19751;40.274;18.268;2023-05-01T00:28:56;100899.72;;;16.18;100.00
33404;BME280;19751;40.274;18.268;2023-05-01T00:31:25;100898.84;;;16.17;100.00
33404;BME280;19751;40.274;18.268;2023-05-01T00:33:50;100910.78;;;16.16;100.00
33404;BME280;19751;40.274;18.268;2023-05-01T00:36:16;100906.19;;;16.16;100.00
33404;BME280;19751;40.274;18.268;2023-05-01T00:38:42;100905.34;;;16.16;100.00
33404;BME280;19751;40.274;18.268;2023-05-01T00:41:07;100903.69;;;16.15;100.00
33404;BME280;19751;40.274;18.268;2023-05-01T00:43:33;100900.34;;;16.13;100.00
33404;BME280;19751;40.274;18.268;2023-05-01T00:45:58;100899.53;;;16.12;100.00
33404;BME280;19751;40.274;18.268;2023-05-01T00:48:24;100909.56;;;16.12;100.00
33404;BME280;19751;40.274;18.268;2023-05-01T00:50:51;100901.66;;;16.10;100.00
33404;BME280;19751;40.274;18.268;2023-05-01T00:53:17;100900.81;;;16.10;100.00
33404;BME280;19751;40.274;18.268;2023-05-01T00:55:44;100902.72;;;16.09;100.00
33404;BME280;19751;40.274;18.268;2023-05-01T00:58:10;100910.00;;;16.09;100.00
33404;BME280;19751;40.274;18.268;2023-05-01T01:00:38;100902.91;;;16.08;100.00
33404;BME280;19751;40.274;18.268;2023-05-01T01:03:04;100903.97;;;16.07;100.00
33404;BME280;19751;40.274;18.268;2023-05-01T01:05:31;100894.16;;;16.06;100.00
33404;BME280;19751;40.274;18.268;2023-05-01T01:08:27;100894.16;;;16.06;100.00
33404;BME280;19751;40.274;18.268;2023-05-01T01:11:06;100894.16;;;16.06;100.00
33404;BME280;19751;40.274;18.268;2023-05-01T01:13:50;100887.91;;;16.05;100.00
33404;BME280;19751;40.274;18.268;2023-05-01T01:16:22;100889.56;;;16.06;100.00
33404;BME280;19751;40.274;18.268;2023-05-01T01:21:30;100893.09;;;16.07;100.00
33404;BME280;19751;40.274;18.268;2023-05-01T01:32:16;100897.09;;;16.04;100.00
33404;BME280;19751;40.274;18.268;2023-05-01T01:34:53;100890.81;;;16.04;100.00
33404;BME280;19751;40.274;18.268;2023-05-01T01:37:24;100890.00;;;16.03;100.00
33404;BME280;19751;40.274;18.268;2023-05-01T01:39:57;100884.78;;;16.02;100.00
33404;BME280;19751;40.274;18.268;2023-05-01T01:42:30;100889.41;;;16.01;100.00
33404;BME280;19751;40.274;18.268;2023-05-01T01:45:01;100889.59;;;16.00;100.00
33404;BME280;19751;40.274;18.268;2023-05-01T01:47:31;100886.88;;;16.00;100.00
33404;BME280;19751;40.274;18.268;2023-05-01T01:50:00;100885.47;;;15.97;100.00
33404;BME280;19751;40.274;18.268;2023-05-01T01:52:29;100886.50;;;15.96;100.00
33404;BME280;19751;40.274;18.268;2023-05-01T01:54:59;100886.13;;;15.93;100.00
33404;BME280;19751;40.274;18.268;2023-05-01T01:57:29;100880.06;;;15.90;100.00
33404;BME280;19751;40.274;18.268;2023-05-01T01:59:56;100884.44;;;15.91;100.00
33404;BME280;19751;40.274;18.268;2023-05-01T02:02:23;100886.34;;;15.91;100.00
33404;BME280;19751;40.274;18.268;2023-05-01T02:04:50;100887.97;;;15.92;100.00
33404;BME280;19751;40.274;18.268;2023-05-01T02:07:18;100879.63;;;15.94;100.00
33404;BME280;19751;40.274;18.268;2023-05-01T02:09:44;100879.63;;;15.94;100.00
33404;BME280;19751;40.274;18.268;2023-05-01T02:12:11;100882.34;;;15.94;100.00
33404;BME280;19751;40.274;18.268;2023-05-01T02:14:37;100877.75;;;15.94;100.00
33404;BME280;19751;40.274;18.268;2023-05-01T02:17:04;100876.09;;;15.93;100.00
33404;BME280;19751;40.274;18.268;2023-05-01T02:19:31;100876.09;;;15.93;100.00
33404;BME280;19751;40.274;18.268;2023-05-01T02:21:58;100866.50;;;15.90;100.00
33404;BME280;19751;40.274;18.268;2023-05-01T02:24:26;100876.09;;;15.93;100.00
33404;BME280;19751;40.274;18.268;2023-05-01T02:27:01;100874.63;;;15.90;100.00
33404;BME280;19751;40.274;18.268;2023-05-01T02:29:28;100865.44;;;15.91;100.00
33404;BME280;19751;40.274;18.268;2023-05-01T02:31:54;100866.50;;;15.90;100.00
33404;BME280;19751;40.274;18.268;2023-05-01T02:34:19;100869.44;;;15.89;100.00
33404;BME280;19751;40.274;18.268;2023-05-01T02:36:45;100864.22;;;15.87;100.00
33404;BME280;19751;40.274;18.268;2023-05-01T02:39:11;100871.75;;;15.85;100.00
33404;BME280;19751;40.274;18.268;2023-05-01T02:41:37;100865.50;;;15.85;100.00
33404;BME280;19751;40.274;18.268;2023-05-01T02:44:04;100866.31;;;15.85;100.00
33404;BME280;19751;40.274;18.268;2023-05-01T02:46:34;100862.78;;;15.85;100.00
33404;BME280;19751;40.274;18.268;2023-05-01T02:49:02;100862.78;;;15.85;100.00
33404;BME280;19751;40.274;18.268;2023-05-01T02:51:31;100868.22;;;15.85;100.00
33404;BME280;19751;40.274;18.268;2023-05-01T02:53:58;100871.53;;;15.87;100.00
33404;BME280;19751;40.274;18.268;2023-05-01T02:56:25;100872.16;;;15.89;100.00
33404;BME280;19751;40.274;18.268;2023-05-01T02:58:51;100866.72;;;15.89;100.00
33404;BME280;19751;40.274;18.268;2023-05-01T03:01:17;100866.91;;;15.87;100.00
33404;BME280;19751;40.274;18.268;2023-05-01T03:03:43;100865.28;;;15.86;100.00
33404;BME280;19751;40.274;18.268;2023-05-01T03:06:09;100869.88;;;15.86;100.00
33404;BME280;19751;40.274;18.268;2023-05-01T03:08:34;100860.91;;;15.85;100.00
33404;BME280;19751;40.274;18.268;2023-05-01T03:11:04;100855.66;;;15.84;100.00
33404;BME280;19751;40.274;18.268;2023-05-01T03:13:29;100862.16;;;15.83;100.00
33404;BME280;19751;40.274;18.268;2023-05-01T03:15:55;100855.31;;;15.80;100.00
33404;BME280;19751;40.274;18.268;2023-05-01T03:18:21;100858.03;;;15.80;100.00
33404;BME280;19751;40.274;18.268;2023-05-01T03:20:55;100862.59;;;15.80;100.00
33404;BME280;19751;40.274;18.268;2023-05-01T03:23:21;100858.22;;;15.79;100.00
33404;BME280;19751;40.274;18.268;2023-05-01T03:25:48;100864.72;;;15.78;100.00
33404;BME280;19751;40.274;18.268;2023-05-01T03:28:14;100862.81;;;15.78;100.00
33404;BME280;19751;40.274;18.268;2023-05-01T03:30:39;100858.03;;;15.80;100.00
33404;BME280;19751;40.274;18.268;2023-05-01T03:33:05;100865.53;;;15.78;100.00
33404;BME280;19751;40.274;18.268;2023-05-01T03:35:31;100861.75;;;15.79;100.00
33404;BME280;19751;40.274;18.268;2023-05-01T03:37:56;100855.50;;;15.79;100.00
33404;BME280;19751;40.274;18.268;2023-05-01T03:40:22;100864.03;;;15.82;100.00
33404;BME280;19751;40.274;18.268;2023-05-01T03:42:47;100861.97;;;15.84;100.00
33404;BME280;19751;40.274;18.268;2023-05-01T03:45:13;100858.19;;;15.85;100.00
33404;BME280;19751;40.274;18.268;2023-05-01T03:47:39;100853.34;;;15.87;100.00
33404;BME280;19751;40.274;18.268;2023-05-01T03:50:05;100856.88;;;15.88;100.00
33404;BME280;19751;40.274;18.268;2023-05-01T03:52:30;100860.47;;;15.88;100.00
33404;BME280;19751;40.274;18.268;2023-05-01T03:54:56;100861.06;;;15.90;100.00
33404;BME280;19751;40.274;18.268;2023-05-01T03:57:21;100864.41;;;15.93;100.00
33404;BME280;19751;40.274;18.268;2023-05-01T03:59:51;100863.34;;;15.94;100.00
33404;BME280;19751;40.274;18.268;2023-05-01T04:02:17;100865.00;;;15.95;100.00
33404;BME280;19751;40.274;18.268;2023-05-01T04:04:43;100867.47;;;15.96;100.00
33404;BME280;19751;40.274;18.268;2023-05-01T04:07:09;100862.03;;;15.96;100.00
33404;BME280;19751;40.274;18.268;2023-05-01T04:09:35;100863.72;;;15.97;100.00
33404;BME280;19751;40.274;18.268;2023-05-01T04:12:00;100858.28;;;15.97;100.00
33404;BME280;19751;40.274;18.268;2023-05-01T04:14:26;100864.56;;;15.98;100.00
33404;BME280;19751;40.274;18.268;2023-05-01T04:16:52;100866.22;;;15.99;100.00
33404;BME280;19751;40.274;18.268;2023-05-01T04:19:17;100871.41;;;16.00;100.00
33404;BME280;19751;40.274;18.268;2023-05-01T04:21:43;100861.38;;;16.01;100.00
33404;BME280;19751;40.274;18.268;2023-05-01T04:24:08;100870.16;;;16.03;100.00
33404;BME280;19751;40.274;18.268;2023-05-01T04:26:34;100864.72;;;16.03;100.00
33404;BME280;19751;40.274;18.268;2023-05-01T04:28:59;100869.09;;;16.04;100.00
33404;BME280;19751;40.274;18.268;2023-05-01T04:31:25;100871.59;;;16.05;100.00
33404;BME280;19751;40.274;18.268;2023-05-01T04:33:51;100861.56;;;16.06;100.00
33404;BME280;19751;40.274;18.268;2023-05-01T04:36:17;100864.28;;;16.06;100.00
33404;BME280;19751;40.274;18.268;2023-05-01T04:38:42;100878.69;;;16.06;100.00
33404;BME280;19751;40.274;18.268;2023-05-01T04:41:08;100878.06;;;16.04;100.00
33404;BME280;19751;40.274;18.268;2023-05-01T04:43:34;100881.03;;;16.03;100.00
33404;BME280;19751;40.274;18.268;2023-05-01T04:45:59;100885.22;;;15.99;100.00
33404;BME280;19751;40.274;18.268;2023-05-01T04:48:25;100890.91;;;15.97;100.00
33404;BME280;19751;40.274;18.268;2023-05-01T04:50:50;100884.25;;;15.93;100.00
33404;BME280;19751;40.274;18.268;2023-05-01T04:53:16;100890.50;;;15.94;100.00
33404;BME280;19751;40.274;18.268;2023-05-01T04:55:41;100893.81;;;15.96;100.00
33404;BME280;19751;40.274;18.268;2023-05-01T04:58:07;100898.38;;;16.02;100.00
33404;BME280;19751;40.274;18.268;2023-05-01T05:00:32;100898.78;;;16.05;100.00
33404;BME280;19751;40.274;18.268;2023-05-01T05:02:58;100895.81;;;16.07;100.00
33404;BME280;19751;40.274;18.268;2023-05-01T05:05:23;100910.88;;;16.09;100.00
33404;BME280;19751;40.274;18.268;2023-05-01T05:07:49;100902.72;;;16.09;100.00
33404;BME280;19751;40.274;18.268;2023-05-01T05:10:14;100913.94;;;16.13;100.00
33404;BME280;19751;40.274;18.268;2023-05-01T05:12:40;100906.19;;;16.16;100.00
33404;BME280;19751;40.274;18.268;2023-05-01T05:15:05;100907.00;;;16.17;100.00
33404;BME280;19751;40.274;18.268;2023-05-01T05:17:31;100911.63;;;16.16;100.00
33404;BME280;19751;40.274;18.268;2023-05-01T05:19:56;100907.41;;;16.21;100.00
33404;BME280;19751;40.274;18.268;2023-05-01T05:22:22;100916.84;;;16.18;100.00
33404;BME280;19751;40.274;18.268;2023-05-01T05:24:54;100911.22;;;16.13;100.00
33404;BME280;19751;40.274;18.268;2023-05-01T05:27:20;100912.28;;;16.12;100.00
33404;BME280;19751;40.274;18.268;2023-05-01T05:29:46;100911.50;;;16.05;100.00
33404;BME280;19751;40.274;18.268;2023-05-01T05:32:11;100919.50;;;16.00;100.00
33404;BME280;19751;40.274;18.268;2023-05-01T05:34:37;100912.41;;;15.99;100.00
33404;BME280;19751;40.274;18.268;2023-05-01T05:37:03;100915.72;;;16.01;100.00
33404;BME280;19751;40.274;18.268;2023-05-01T05:39:28;100920.13;;;16.02;100.00
33404;BME280;19751;40.274;18.268;2023-05-01T05:41:54;100916.34;;;16.03;100.00
33404;BME280;19751;40.274;18.268;2023-05-01T05:44:20;100921.78;;;16.03;100.00
33404;BME280;19751;40.274;18.268;2023-05-01T05:46:45;100923.44;;;16.04;100.00
33404;BME280;19751;40.274;18.268;2023-05-01T05:49:11;100916.78;;;16.00;100.00
33404;BME280;19751;40.274;18.268;2023-05-01T05:51:37;100921.38;;;15.99;100.00
33404;BME280;19751;40.274;18.268;2023-05-01T05:54:03;100922.22;;;16.00;100.00
33404;BME280;19751;40.274;18.268;2023-05-01T05:56:29;100927.03;;;15.98;100.00
33404;BME280;19751;40.274;18.268;2023-05-01T05:58:54;100920.56;;;15.99;100.00
33404;BME280;19751;40.274;18.268;2023-05-01T06:01:20;100927.19;;;16.03;100.00
33404;BME280;19751;40.274;18.268;2023-05-01T06:03:45;100928.88;;;16.04;100.00
33404;BME280;19751;40.274;18.268;2023-05-01T06:06:11;100925.31;;;16.03;100.00
33404;BME280;19751;40.274;18.268;2023-05-01T06:08:36;100923.81;;;16.07;100.00
33404;BME280;19751;40.274;18.268;2023-05-01T06:11:02;100928.59;;;16.12;100.00
33404;BME280;19751;40.274;18.268;2023-05-01T06:13:28;100925.84;;;16.19;100.00
33404;BME280;19751;40.274;18.268;2023-05-01T06:15:53;100930.44;;;16.18;100.00
33404;BME280;19751;40.274;18.268;2023-05-01T06:18:19;100936.69;;;16.19;100.00
33404;BME280;19751;40.274;18.268;2023-05-01T06:20:45;100938.13;;;16.21;100.00
33404;BME280;19751;40.274;18.268;2023-05-01T06:23:12;100928.53;;;16.19;100.00
33404;BME280;19751;40.274;18.268;2023-05-01T06:25:38;100936.25;;;16.22;100.00
33404;BME280;19751;40.274;18.268;2023-05-01T06:28:04;100935.59;;;16.26;100.00
33404;BME280;19751;40.274;18.268;2023-05-01T06:30:29;100944.97;;;16.30;100.00
33404;BME280;19751;40.274;18.268;2023-05-01T06:32:55;100938.25;;;16.33;100.00
33404;BME280;19751;40.274;18.268;2023-05-01T06:35:21;100936.16;;;16.35;100.00
33404;BME280;19751;40.274;18.268;2023-05-01T06:37:46;100928.38;;;16.38;100.00
33404;BME280;19751;40.274;18.268;2023-05-01T06:40:12;100938.78;;;16.41;100.00
33404;BME280;19751;40.274;18.268;2023-05-01T06:42:38;100933.97;;;16.44;100.00
33404;BME280;19751;40.274;18.268;2023-05-01T06:45:08;100938.75;;;16.48;100.00
33404;BME280;19751;40.274;18.268;2023-05-01T06:47:33;100935.56;;;16.51;100.00
33404;BME280;19751;40.274;18.268;2023-05-01T06:49:59;100947.66;;;16.55;100.00
33404;BME280;19751;40.274;18.268;2023-05-01T06:52:25;100948.50;;;16.56;100.00
33404;BME280;19751;40.274;18.268;2023-05-01T06:54:50;100939.13;;;16.52;100.00
33404;BME280;19751;40.274;18.268;2023-05-01T06:57:16;100945.63;;;16.51;100.00
33404;BME280;19751;40.274;18.268;2023-05-01T06:59:41;100947.34;;;16.45;100.00
33404;BME280;19751;40.274;18.268;2023-05-01T07:02:07;100941.06;;;16.45;100.00
33404;BME280;19751;40.274;18.268;2023-05-01T07:04:32;100946.06;;;16.48;100.00
33404;BME280;19751;40.274;18.268;2023-05-01T07:06:58;100947.50;;;16.50;100.00
33404;BME280;19751;40.274;18.268;2023-05-01T07:09:23;100957.53;;;16.50;100.00
33404;BME280;19751;40.274;18.268;2023-05-01T07:11:49;100955.44;;;16.52;100.00
33404;BME280;19751;40.274;18.268;2023-05-01T07:14:14;100963.16;;;16.55;100.00
33404;BME280;19751;40.274;18.268;2023-05-01T07:16:40;100966.47;;;16.57;100.00
33404;BME280;19751;40.274;18.268;2023-05-01T07:19:05;100962.69;;;16.58;100.00
33404;BME280;19751;40.274;18.268;2023-05-01T07:21:31;100953.94;;;16.56;100.00
33404;BME280;19751;40.274;18.268;2023-05-01T07:23:57;100961.66;;;16.59;100.00
33404;BME280;19751;40.274;18.268;2023-05-01T07:26:25;100968.31;;;16.63;100.00
33404;BME280;19751;40.274;18.268;2023-05-01T07:28:51;100970.56;;;16.66;100.00
33404;BME280;19751;40.274;18.268;2023-05-01T07:31:16;100970.53;;;16.73;100.00
33404;BME280;19751;40.274;18.268;2023-05-01T07:33:42;100974.25;;;16.78;100.00
33404;BME280;19751;40.274;18.268;2023-05-01T07:36:07;100971.66;;;16.83;100.00
33404;BME280;19751;40.274;18.268;2023-05-01T07:38:33;100975.41;;;16.89;100.00
33404;BME280;19751;40.274;18.268;2023-05-01T07:40:59;100977.44;;;16.94;100.00
33404;BME280;19751;40.274;18.268;2023-05-01T07:43:24;100974.28;;;16.97;100.00
33404;BME280;19751;40.274;18.268;2023-05-01T07:45:54;100974.03;;;16.98;100.00
33404;BME280;19751;40.274;18.268;2023-05-01T07:48:21;100983.66;;;17.01;100.00
33404;BME280;19751;40.274;18.268;2023-05-01T07:50:46;100981.53;;;17.03;100.00
33404;BME280;19751;40.274;18.268;2023-05-01T07:53:12;100981.06;;;17.06;100.00
33404;BME280;19751;40.274;18.268;2023-05-01T07:55:37;100986.44;;;17.12;100.00
33404;BME280;19751;40.274;18.268;2023-05-01T07:58:03;100988.25;;;17.19;100.00
33404;BME280;19751;40.274;18.268;2023-05-01T08:00:28;100978.81;;;17.21;100.00
33404;BME280;19751;40.274;18.268;2023-05-01T08:02:54;100979.41;;;17.23;100.00
33404;BME280;19751;40.274;18.268;2023-05-01T08:05:19;100981.22;;;17.29;100.00
33404;BME280;19751;40.274;18.268;2023-05-01T08:07:45;100989.53;;;17.34;100.00
33404;BME280;19751;40.274;18.268;2023-05-01T08:10:10;100983.41;;;17.39;100.00
33404;BME280;19751;40.274;18.268;2023-05-01T08:12:42;100991.47;;;17.46;100.00
33404;BME280;19751;40.274;18.268;2023-05-01T08:15:09;100975.50;;;17.49;100.00
33404;BME280;19751;40.274;18.268;2023-05-01T08:17:35;100989.06;;;17.56;100.00
33404;BME280;19751;40.274;18.268;2023-05-01T08:20:01;100993.44;;;17.57;100.00
33404;BME280;19751;40.274;18.268;2023-05-01T08:22:27;100991.34;;;17.59;100.00
33404;BME280;19751;40.274;18.268;2023-05-01T08:24:52;101001.28;;;17.65;100.00
33404;BME280;19751;40.274;18.268;2023-05-01T08:27:18;101004.16;;;17.70;100.00
33404;BME280;19751;40.274;18.268;2023-05-01T08:29:44;100997.06;;;17.69;100.00
33404;BME280;19751;40.274;18.268;2023-05-01T08:32:09;101004.38;;;17.69;100.00
33404;BME280;19751;40.274;18.268;2023-05-01T08:34:35;100996.28;;;17.62;100.00
33404;BME280;19751;40.274;18.268;2023-05-01T08:37:00;100997.81;;;17.58;100.00
33404;BME280;19751;40.274;18.268;2023-05-01T08:39:26;101000.19;;;17.54;100.00
33404;BME280;19751;40.274;18.268;2023-05-01T08:41:52;101000.84;;;17.50;100.00
33404;BME280;19751;40.274;18.268;2023-05-01T08:44:19;101000.25;;;17.48;100.00
33404;BME280;19751;40.274;18.268;2023-05-01T08:47:09;100995.66;;;17.48;100.00
33404;BME280;19751;40.274;18.268;2023-05-01T08:49:40;101012.81;;;17.49;100.00
33404;BME280;19751;40.274;18.268;2023-05-01T08:52:10;101006.31;;;17.50;100.00
33404;BME280;19751;40.274;18.268;2023-05-01T08:54:41;101006.91;;;17.52;100.00
33404;BME280;19751;40.274;18.268;2023-05-01T08:57:08;101000.53;;;17.58;100.00
33404;BME280;19751;40.274;18.268;2023-05-01T08:59:34;101002.81;;;17.61;100.00
33404;BME280;19751;40.274;18.268;2023-05-01T09:02:02;101006.50;;;17.67;100.00
33404;BME280;19751;40.274;18.268;2023-05-01T09:04:31;101006.28;;;17.68;100.00
33404;BME280;19751;40.274;18.268;2023-05-01T09:06:58;101004.34;;;17.75;100.00
33404;BME280;19751;40.274;18.268;2023-05-01T09:09:25;101008.84;;;17.81;100.00
33404;BME280;19751;40.274;18.268;2023-05-01T09:11:53;101005.69;;;17.84;100.00
33404;BME280;19751;40.274;18.268;2023-05-01T09:14:20;101003.53;;;17.86;100.00
33404;BME280;19751;40.274;18.268;2023-05-01T09:16:45;101011.72;;;17.86;100.00
33404;BME280;19751;40.274;18.268;2023-05-01T09:19:11;101009.97;;;17.92;100.00
33404;BME280;19751;40.274;18.268;2023-05-01T09:21:36;101010.34;;;17.96;100.00
33404;BME280;19751;40.274;18.268;2023-05-01T09:24:03;101020.78;;;17.99;100.00
33404;BME280;19751;40.274;18.268;2023-05-01T09:26:28;101011.53;;;18.00;100.00
33404;BME280;19751;40.274;18.268;2023-05-01T09:28:54;101017.59;;;18.02;100.00
33404;BME280;19751;40.274;18.268;2023-05-01T09:31:25;101005.84;;;18.01;100.00
33404;BME280;19751;40.274;18.268;2023-05-01T09:34:04;101008.59;;;18.01;100.00
33404;BME280;19751;40.274;18.268;2023-05-01T09:36:32;101016.38;;;17.98;100.00
33404;BME280;19751;40.274;18.268;2023-05-01T09:38:59;101017.47;;;17.97;100.00
33404;BME280;19751;40.274;18.268;2023-05-01T09:41:25;101012.97;;;18.02;100.00
33404;BME280;19751;40.274;18.268;2023-05-01T09:43:57;101014.63;;;18.03;100.00
33404;BME280;19751;40.274;18.268;2023-05-01T09:46:24;101014.63;;;18.03;100.00
33404;BME280;19751;40.274;18.268;2023-05-01T09:48:58;101015.44;;;18.04;100.00
33404;BME280;19751;40.274;18.268;2023-05-01T09:51:31;101019.63;;;18.06;100.00
33404;BME280;19751;40.274;18.268;2023-05-01T09:54:02;101019.38;;;18.08;100.00
33404;BME280;19751;40.274;18.268;2023-05-01T09:56:30;101013.59;;;18.04;100.00
33404;BME280;19751;40.274;18.268;2023-05-01T09:58:58;101007.88;;;18.06;100.00
33404;BME280;19751;40.274;18.268;2023-05-01T10:01:41;101011.44;;;18.06;100.00
33404;BME280;19751;40.274;18.268;2023-05-01T10:04:07;101015.00;;;18.07;100.00
33404;BME280;19751;40.274;18.268;2023-05-01T10:06:37;101011.56;;;18.11;100.00
33404;BME280;19751;40.274;18.268;2023-05-01T10:09:04;101016.09;;;18.18;100.00
33404;BME280;19751;40.274;18.268;2023-05-01T10:11:51;101016.09;;;18.18;100.00
33404;BME280;19751;40.274;18.268;2023-05-01T10:14:17;101013.97;;;18.20;100.00
33404;BME280;19751;40.274;18.268;2023-05-01T10:16:44;101010.78;;;18.23;100.00
33404;BME280;19751;40.274;18.268;2023-05-01T10:19:11;101010.06;;;18.27;100.00
33404;BME280;19751;40.274;18.268;2023-05-01T10:21:36;101004.16;;;18.30;100.00
33404;BME280;19751;40.274;18.268;2023-05-01T10:24:02;101011.13;;;18.26;100.00
33404;BME280;19751;40.274;18.268;2023-05-01T10:26:32;101013.25;;;18.24;100.00
33404;BME280;19751;40.274;18.268;2023-05-01T10:29:02;101019.78;;;18.23;100.00
33404;BME280;19751;40.274;18.268;2023-05-01T10:31:28;101011.47;;;18.18;100.00
33404;BME280;19751;40.274;18.268;2023-05-01T10:33:57;101019.16;;;18.09;100.00
33404;BME280;19751;40.274;18.268;2023-05-01T10:36:31;101011.53;;;18.00;100.00
33404;BME280;19751;40.274;18.268;2023-05-01T10:38:59;101014.81;;;17.90;100.00
33404;BME280;19751;40.274;18.268;2023-05-01T10:41:59;101010.88;;;17.86;100.00
33404;BME280;19751;40.274;18.268;2023-05-01T10:44:27;101004.63;;;17.85;100.00
33404;BME280;19751;40.274;18.268;2023-05-01T10:46:53;101009.59;;;17.88;100.00
33404;BME280;19751;40.274;18.268;2023-05-01T10:49:18;101010.69;;;17.87;100.00
33404;BME280;19751;40.274;18.268;2023-05-01T10:52:10;101010.88;;;17.86;100.00
33404;BME280;19751;40.274;18.268;2023-05-01T10:54:37;101011.13;;;17.84;100.00
33404;BME280;19751;40.274;18.268;2023-05-01T10:57:04;100995.00;;;17.83;100.00
33404;BME280;19751;40.274;18.268;2023-05-01T11:02:29;101003.16;;;17.83;100.00
33404;BME280;19751;40.274;18.268;2023-05-01T11:04:55;101000.09;;;17.79;100.00
33404;BME280;19751;40.274;18.268;2023-05-01T11:07:21;101001.81;;;17.74;100.00
33404;BME280;19751;40.274;18.268;2023-05-01T11:09:52;100999.41;;;17.84;100.00
33404;BME280;19751;40.274;18.268;2023-05-01T11:15:09;101007.47;;;17.91;100.00
33404;BME280;19751;40.274;18.268;2023-05-01T11:20:07;100999.44;;;17.96;100.00
33404;BME280;19751;40.274;18.268;2023-05-01T11:22:34;101009.66;;;18.00;100.00
33404;BME280;19751;40.274;18.268;2023-05-01T11:25:17;101010.00;;;18.04;100.00
33404;BME280;19751;40.274;18.268;2023-05-01T11:27:53;101011.91;;;18.03;100.00
33404;BME280;19751;40.274;18.268;2023-05-01T11:30:20;101003.25;;;18.06;100.00
33404;BME280;19751;40.274;18.268;2023-05-01T11:32:47;101000.28;;;18.08;100.00
33404;BME280;19751;40.274;18.268;2023-05-01T11:35:24;101003.88;;;18.08;100.00
33404;BME280;19751;40.274;18.268;2023-05-01T11:37:53;101004.81;;;18.14;100.00
33404;BME280;19751;40.274;18.268;2023-05-01T11:40:27;101006.59;;;18.20;100.00
33404;BME280;19751;40.274;18.268;2023-05-01T11:45:28;101009.44;;;18.13;100.00
33404;BME280;19751;40.274;18.268;2023-05-01T11:47:54;101017.25;;;18.10;100.00
33404;BME280;19751;40.274;18.268;2023-05-01T11:50:20;101016.66;;;18.08;100.00
33404;BME280;19751;40.274;18.268;2023-05-01T11:52:51;101022.34;;;18.06;100.00
33404;BME280;19751;40.274;18.268;2023-05-01T11:55:20;101016.06;;;18.06;100.00
33404;BME280;19751;40.274;18.268;2023-05-01T11:57:49;101022.34;;;18.06;100.00
33404;BME280;19751;40.274;18.268;2023-05-01T12:00:32;101022.34;;;18.06;100.00
33404;BME280;19751;40.274;18.268;2023-05-01T12:03:00;101011.44;;;18.06;100.00
33404;BME280;19751;40.274;18.268;2023-05-01T12:05:28;101021.75;;;18.04;100.00
33404;BME280;19751;40.274;18.268;2023-05-01T12:08:20;101011.31;;;18.01;100.00
33404;BME280;19751;40.274;18.268;2023-05-01T12:10:48;101015.44;;;18.04;100.00
33404;BME280;19751;40.274;18.268;2023-05-01T12:13:15;101007.75;;;18.01;100.00
33404;BME280;19751;40.274;18.268;2023-05-01T12:15:45;101020.19;;;17.97;100.00
33404;BME280;19751;40.274;18.268;2023-05-01T12:18:12;101008.66;;;17.95;100.00
33404;BME280;19751;40.274;18.268;2023-05-01T12:20:43;101010.94;;;17.98;100.00
33404;BME280;19751;40.274;18.268;2023-05-01T12:23:10;101013.91;;;17.96;100.00
33404;BME280;19751;40.274;18.268;2023-05-01T12:25:38;101013.09;;;17.96;100.00
33404;BME280;19751;40.274;18.268;2023-05-01T12:28:14;101016.84;;;17.95;100.00
33404;BME280;19751;40.274;18.268;2023-05-01T12:30:42;101012.47;;;17.94;100.00
33404;BME280;19751;40.274;18.268;2023-05-01T12:33:18;101004.75;;;17.91;100.00
33404;BME280;19751;40.274;18.268;2023-05-01T12:35:46;101006.25;;;17.86;100.00
33404;BME280;19751;40.274;18.268;2023-05-01T12:38:19;101005.69;;;17.84;100.00
33404;BME280;19751;40.274;18.268;2023-05-01T12:40:53;101002.34;;;17.82;100.00
33404;BME280;19751;40.274;18.268;2023-05-01T12:43:31;100998.09;;;17.86;100.00
33404;BME280;19751;40.274;18.268;2023-05-01T12:45:57;100997.19;;;17.93;100.00
33404;BME280;19751;40.274;18.268;2023-05-01T12:48:23;100997.31;;;17.98;100.00
33404;BME280;19751;40.274;18.268;2023-05-01T12:50:50;100992.09;;;17.96;100.00
33404;BME280;19751;40.274;18.268;2023-05-01T13:03:26;100979.34;;;17.78;100.00
33404;BME280;19751;40.274;18.268;2023-05-01T13:05:57;100969.06;;;17.80;100.00